Time;durP1;ratioP1;P1;durP2;ratioP2;P2;SDS_P1;SDS_P2;PMS_P1;PMS_P2;Temp;Humidity;BMP_temperature;BMP_pressure;BME280_temperature;BME280_humidity;BME280_pressure;Samples;Min_cycle;Max_cycle;Signal;HPM_P1;HPM_P2
2022/10/27 00:01:30;;;;;;;24.70;14.23;;;;;;;9.82;100.00;101858.53;12643183;23;20005;-91
2022/10/27 00:06:36;;;;;;;23.23;14.18;;;;;;;10.51;100.00;101971.38;12640648;23;20021;-91
2022/10/27 00:11:37;;;;;;;26.17;14.35;;;;;;;10.70;100.00;101977.72;12611410;23;21632;-91
2022/10/27 00:16:38;;;;;;;26.60;14.18;;;;;;;10.96;100.00;102073.03;12555872;23;20114;-88
2022/10/27 00:21:39;;;;;;;23.20;14.27;;;;;;;10.32;100.00;101950.41;12629345;23;20090;-89
2022/10/27 00:26:40;;;;;;;29.00;14.35;;;;;;;10.03;100.00;101897.72;12688120;23;20021;-91
2022/10/27 00:31:41;;;;;;;23.08;13.25;;;;;;;10.05;100.00;101948.69;12600910;23;20028;-91
2022/10/27 00:36:46;;;;;;;23.13;13.32;;;;;;;9.62;100.00;101913.69;12585638;23;20017;-91
2022/10/27 00:41:49;;;;;;;27.85;15.00;;;;;;;10.12;100.00;102011.06;12595147;23;20020;-91
2022/10/27 00:46:50;;;;;;;33.47;16.02;;;;;;;10.01;100.00;101977.72;12607165;23;20320;-91
2022/10/27 00:52:03;;;;;;;28.02;15.80;;;;;;;10.08;100.00;101945.47;12609098;23;20025;-91
2022/10/27 00:57:07;;;;;;;26.90;15.82;;;;;;;9.05;100.00;101817.47;12662968;23;20005;-91
2022/10/27 01:02:18;;;;;;;25.73;15.70;;;;;;;10.08;100.00;102027.16;12662486;23;20079;-92
2022/10/27 01:07:30;;;;;;;34.90;16.08;;;;;;;9.88;100.00;102002.53;12649800;23;20006;-92
2022/10/27 01:12:31;;;;;;;33.35;15.68;;;;;;;9.97;100.00;102052.66;12641583;23;20017;-88
2022/10/27 01:17:57;;;;;;;24.75;14.48;;;;;;;10.78;100.00;102156.50;12602184;23;20094;-91
2022/10/27 01:23:21;;;;;;;28.17;14.05;;;;;;;8.38;100.00;101799.63;12583154;23;20072;-88
2022/10/27 01:28:41;;;;;;;26.33;15.50;;;;;;;9.87;100.00;102025.63;12624443;23;20412;-91
2022/10/27 01:33:56;;;;;;;29.90;16.38;;;;;;;8.65;100.00;101817.66;12624728;23;20016;-91
2022/10/27 01:39:03;;;;;;;26.45;15.35;;;;;;;8.98;100.00;101914.69;12636113;23;20015;-88
2022/10/27 01:44:07;;;;;;;24.55;15.95;;;;;;;9.89;100.00;102056.50;12607594;23;20011;-88
2022/10/27 01:49:08;;;;;;;36.25;18.30;;;;;;;9.17;100.00;101954.13;12630956;23;20048;-87
2022/10/27 01:54:09;;;;;;;35.85;17.85;;;;;;;10.02;100.00;102058.31;12662012;23;20012;-89
2022/10/27 01:59:31;;;;;;;35.75;18.60;;;;;;;10.32;100.00;102088.03;12678293;23;20061;-89
2022/10/27 02:04:54;;;;;;;33.60;20.13;;;;;;;10.65;100.00;102062.97;12682613;23;20033;-88
2022/10/27 02:10:00;;;;;;;32.05;19.58;;;;;;;9.93;100.00;101974.41;12727503;23;20053;-88
2022/10/27 02:15:03;;;;;;;36.55;20.40;;;;;;;10.20;100.00;101988.78;12704522;23;20061;-91
2022/10/27 02:20:06;;;;;;;41.00;19.80;;;;;;;10.96;100.00;102073.03;12668734;23;20377;-92
2022/10/27 02:25:07;;;;;;;35.53;20.25;;;;;;;10.40;100.00;101972.13;12678429;23;20073;-91
2022/10/27 02:30:08;;;;;;;36.97;19.85;;;;;;;10.63;100.00;102057.69;12680637;23;20017;-91
2022/10/27 02:35:08;;;;;;;37.35;17.85;;;;;;;11.31;100.00;102152.41;12677536;23;20133;-91
2022/10/27 02:40:10;;;;;;;41.78;18.10;;;;;;;10.42;100.00;102066.34;12679791;23;20388;-88
2022/10/27 02:45:11;;;;;;;40.95;19.05;;;;;;;11.23;100.00;102186.63;12674210;23;20530;-89
2022/10/27 02:50:12;;;;;;;39.10;18.67;;;;;;;10.97;100.00;102190.44;12677464;23;20018;-92
2022/10/27 02:55:12;;;;;;;38.17;17.58;;;;;;;9.73;100.00;101997.34;12676532;23;20010;-89
2022/10/27 03:00:14;;;;;;;34.70;19.08;;;;;;;9.35;100.00;101931.41;12637707;23;20136;-91
2022/10/27 03:05:14;;;;;;;32.47;17.73;;;;;;;10.67;100.00;102180.09;12674894;23;20397;-88
2022/10/27 03:10:15;;;;;;;34.53;18.30;;;;;;;9.72;100.00;102001.19;12701563;23;21692;-88
2022/10/27 03:15:16;;;;;;;37.95;20.30;;;;;;;10.82;100.00;102214.75;12678128;23;20017;-88
2022/10/27 03:20:16;;;;;;;39.00;19.55;;;;;;;9.74;100.00;102028.47;12632256;23;20081;-88
2022/10/27 03:25:17;;;;;;;40.25;19.80;;;;;;;10.55;100.00;102143.31;12676682;23;20068;-88
2022/10/27 03:30:18;;;;;;;36.20;20.25;;;;;;;9.99;100.00;102067.03;12680150;23;20017;-92
2022/10/27 03:35:18;;;;;;;44.40;20.40;;;;;;;10.19;100.00;102072.38;12679000;23;20010;-92
2022/10/27 03:40:19;;;;;;;39.35;19.77;;;;;;;9.75;100.00;102030.97;12677568;23;20507;-88
2022/10/27 03:45:20;;;;;;;39.92;20.45;;;;;;;10.56;100.00;102189.06;12674678;23;20016;-88
2022/10/27 03:50:20;;;;;;;38.70;19.33;;;;;;;9.42;100.00;101996.25;12660309;23;20009;-89
2022/10/27 03:55:21;;;;;;;49.38;23.92;;;;;;;10.18;100.00;102158.78;12681293;23;20005;-88
2022/10/27 04:00:22;;;;;;;47.67;24.25;;;;;;;9.54;100.00;102007.41;12674438;23;20010;-89
2022/10/27 04:05:25;;;;;;;52.13;26.63;;;;;;;10.13;100.00;102115.41;12693329;23;20025;-89
2022/10/27 04:10:26;;;;;;;49.15;26.45;;;;;;;9.84;100.00;102043.44;12658742;23;20021;-92
2022/10/27 04:15:26;;;;;;;43.10;24.63;;;;;;;9.66;100.00;102002.06;12679755;23;20018;-92
2022/10/27 04:20:27;;;;;;;53.13;26.40;;;;;;;9.64;100.00;102026.19;12646339;23;20001;-92
2022/10/27 04:25:28;;;;;;;63.28;29.73;;;;;;;9.97;100.00;102050.75;12684490;23;20013;-92
2022/10/27 04:30:28;;;;;;;58.13;28.55;;;;;;;9.87;100.00;102053.13;12676254;23;20013;-92
2022/10/27 04:35:31;;;;;;;58.90;29.13;;;;;;;10.15;100.00;102109.66;12688030;23;20013;-92
2022/10/27 04:40:35;;;;;;;52.58;28.27;;;;;;;10.17;100.00;102091.91;12663719;23;20032;-89
2022/10/27 04:45:36;;;;;;;55.22;30.48;;;;;;;10.94;100.00;102195.59;12604016;23;20034;-90
2022/10/27 04:50:36;;;;;;;57.63;29.35;;;;;;;9.79;100.00;101995.63;12608210;23;20022;-89
2022/10/27 04:55:37;;;;;;;65.00;31.17;;;;;;;10.05;100.00;102074.41;12674585;23;20014;-92
2022/10/27 05:00:38;;;;;;;66.95;30.13;;;;;;;10.28;100.00;102118.69;12677164;23;20088;-89
2022/10/27 05:05:38;;;;;;;64.22;29.73;;;;;;;10.36;100.00;102166.34;12673074;23;20021;-88
2022/10/27 05:10:39;;;;;;;60.80;29.55;;;;;;;9.28;100.00;101950.66;12640525;23;20462;-91
2022/10/27 05:15:54;;;;;;;63.97;30.08;;;;;;;10.19;100.00;102095.28;12618799;23;20076;-91
2022/10/27 05:20:55;;;;;;;51.67;29.30;;;;;;;10.16;100.00;102101.19;12534679;23;20001;-88
2022/10/27 05:25:58;;;;;;;55.70;27.23;;;;;;;9.37;100.00;101987.84;12563436;23;20012;-92
2022/10/27 05:31:02;;;;;;;56.17;27.33;;;;;;;9.95;100.00;102120.81;12555183;23;20076;-89
2022/10/27 05:36:04;;;;;;;55.35;27.70;;;;;;;10.62;100.00;102251.50;12604941;23;20023;-92
2022/10/27 05:41:08;;;;;;;60.55;28.80;;;;;;;8.56;100.00;101878.50;12563882;23;20052;-92
2022/10/27 05:46:14;;;;;;;48.35;28.35;;;;;;;9.15;100.00;101987.28;12624725;23;20018;-89
2022/10/27 05:51:26;;;;;;;52.05;27.40;;;;;;;9.30;100.00;102003.50;12600165;23;20021;-89
2022/10/27 05:56:41;;;;;;;;;;;;;;;;;;;;;
2022/10/27 06:01:53;;;;;;;54.88;28.33;;;;;;;9.39;100.00;102021.44;12557244;23;20016;-92
2022/10/27 06:06:55;;;;;;;60.17;28.95;;;;;;;9.26;100.00;101994.88;12565212;23;20475;-89
2022/10/27 06:11:55;;;;;;;58.42;28.90;;;;;;;10.20;100.00;102168.50;12618748;23;20032;-89
2022/10/27 06:16:56;;;;;;;74.32;32.10;;;;;;;9.16;100.00;101983.50;12649738;23;20017;-92
2022/10/27 06:22:00;;;;;;;61.20;28.90;;;;;;;9.41;100.00;102038.56;12690226;23;20388;-89
2022/10/27 06:27:00;;;;;;;60.03;27.67;;;;;;;10.02;100.00;102135.38;12659842;23;20009;-88
2022/10/27 06:32:01;;;;;;;61.90;28.65;;;;;;;8.77;100.00;101937.81;12677017;23;20014;-89
2022/10/27 06:37:05;;;;;;;53.47;29.55;;;;;;;8.98;100.00;101937.50;12677785;23;20025;-92
2022/10/27 06:42:35;;;;;;;59.63;28.35;;;;;;;9.92;100.00;102112.97;12619254;23;20017;-89
2022/10/27 06:47:40;;;;;;;55.95;27.25;;;;;;;8.73;100.00;101893.47;12595874;23;20033;-89
2022/10/27 06:53:00;;;;;;;64.95;28.58;;;;;;;9.79;100.00;102029.47;12658851;23;20041;-94
2022/10/27 06:58:00;;;;;;;59.13;28.20;;;;;;;9.26;100.00;101914.31;12653190;23;20007;-92
2022/10/27 07:03:10;;;;;;;57.45;29.45;;;;;;;10.56;100.00;102116.63;12650858;23;20068;-89
2022/10/27 07:08:10;;;;;;;57.03;29.15;;;;;;;10.30;100.00;102047.78;12600535;23;20432;-92
2022/10/27 07:13:11;;;;;;;63.33;31.58;;;;;;;10.55;100.00;101980.03;12543090;23;20029;-92
2022/10/27 07:18:28;;;;;;;63.25;31.02;;;;;;;11.86;100.00;102190.19;12526155;23;20010;-89
2022/10/27 07:23:29;;;;;;;54.88;29.35;;;;;;;10.73;100.00;101960.78;12641434;23;20002;-89
2022/10/27 07:28:44;;;;;;;65.40;34.63;;;;;;;12.04;100.00;102148.81;12665999;23;20270;-89
2022/10/27 07:33:45;;;;;;;70.97;32.33;;;;;;;10.67;100.00;101914.88;12626687;23;20021;-90
2022/10/27 07:38:45;;;;;;;69.28;33.25;;;;;;;12.45;100.00;102207.09;12653390;23;20041;-89
2022/10/27 07:43:49;;;;;;;62.05;31.67;;;;;;;12.64;100.00;102181.06;12621494;23;20006;-89
2022/10/27 07:48:49;;;;;;;51.58;25.83;;;;;;;12.51;100.00;102164.72;12663353;23;20388;-89
2022/10/27 07:53:50;;;;;;;55.55;26.42;;;;;;;12.05;100.00;102066.81;12655495;23;20013;-91
2022/10/27 07:58:50;;;;;;;36.65;22.73;;;;;;;12.29;100.00;102071.34;12679643;23;20004;-91
2022/10/27 08:03:52;;;;;;;40.65;23.45;;;;;;;13.09;100.00;102224.78;12609510;23;20022;-90
2022/10/27 08:08:52;;;;;;;43.15;23.23;;;;;;;11.93;100.00;102032.81;12636471;23;20057;-90
2022/10/27 08:13:58;;;;;;;57.55;23.02;;;;;;;12.24;100.00;102095.25;12600623;23;20005;-91
2022/10/27 08:18:59;;;;;;;39.63;22.27;;;;;;;11.84;100.00;101985.38;12591990;23;20088;-90
2022/10/27 08:24:05;;;;;;;43.03;21.52;;;;;;;13.39;100.00;102262.59;12688038;23;20093;-91
2022/10/27 08:29:27;;;;;;;36.08;21.48;;;;;;;13.46;100.00;102210.78;12595895;23;20041;-93
2022/10/27 08:34:34;;;;;;;38.63;20.80;;;;;;;12.50;100.00;102050.59;12537074;23;20018;-91
2022/10/27 08:39:35;;;;;;;39.15;19.92;;;;;;;12.56;100.00;102032.22;12649772;23;20016;-91
2022/10/27 08:44:41;;;;;;;34.03;18.85;;;;;;;13.70;100.00;102207.97;12675027;23;20416;-89
2022/10/27 08:49:48;;;;;;;36.58;20.35;;;;;;;12.37;100.00;102005.81;12611216;23;20076;-91
2022/10/27 08:54:59;;;;;;;37.28;19.58;;;;;;;13.17;100.00;102148.94;12608184;23;20005;-92
2022/10/27 09:00:00;;;;;;;32.03;20.33;;;;;;;12.65;100.00;102047.38;12597598;23;20006;-92
2022/10/27 09:05:27;;;;;;;26.92;17.95;;;;;;;13.88;100.00;102199.53;12579496;23;20017;-90
2022/10/27 09:11:07;;;;;;;31.17;18.40;;;;;;;14.06;100.00;102200.44;12609232;23;20054;-92
2022/10/27 09:16:38;;;;;;;33.90;17.48;;;;;;;13.46;100.00;102108.41;12502327;23;20020;-92
2022/10/27 09:21:39;;;;;;;27.13;16.23;;;;;;;14.55;100.00;102198.06;12461596;23;20006;-90
2022/10/27 09:26:46;;;;;;;22.42;13.30;;;;;;;13.34;100.00;102016.31;12498744;23;20017;-89
2022/10/27 09:31:57;;;;;;;19.45;12.80;;;;;;;13.48;100.00;101994.75;12616105;23;20073;-88
2022/10/27 09:37:01;;;;;;;17.67;10.50;;;;;;;14.07;100.00;102020.19;12605816;23;20006;-88
2022/10/27 09:42:01;;;;;;;18.60;8.30;;;;;;;13.77;100.00;101948.53;12617546;23;20006;-88
2022/10/27 09:48:00;;;;;;;11.18;6.60;;;;;;;13.99;100.00;101948.63;12494717;23;20037;-89
2022/10/27 09:53:02;;;;;;;10.10;6.65;;;;;;;14.62;100.00;101932.72;12454291;23;20025;-85
2022/10/27 09:58:06;;;;;;;14.82;5.97;;;;;;;15.68;100.00;102063.88;12600669;23;20371;-90
2022/10/27 10:03:19;;;;;;;8.90;5.15;;;;;;;16.01;100.00;102004.56;12559027;23;20508;-89
2022/10/27 10:08:25;;;;;;;8.55;4.38;;;;;;;15.79;100.00;101937.97;12633452;23;20012;-88
2022/10/27 10:13:27;;;;;;;8.25;3.60;;;;;;;17.07;100.00;102105.78;12640587;23;20515;-91
2022/10/27 10:18:28;;;;;;;8.55;4.60;;;;;;;15.45;100.00;101841.06;12649393;23;20006;-90
2022/10/27 10:23:50;;;;;;;5.22;2.45;;;;;;;17.31;100.00;102088.69;12594530;23;20478;-89
2022/10/27 10:28:53;;;;;;;11.13;3.10;;;;;;;16.44;100.00;101932.41;12689797;23;20017;-88
2022/10/27 10:34:01;;;;;;;5.50;2.10;;;;;;;17.60;100.00;102085.47;12677707;23;20009;-88
2022/10/27 10:39:02;;;;;;;5.10;2.42;;;;;;;17.41;100.00;102033.06;12668180;23;20036;-89
2022/10/27 10:44:12;;;;;;;5.97;2.00;;;;;;;16.56;100.00;101877.44;12656141;23;20014;-87
2022/10/27 10:49:24;;;;;;;5.75;1.70;;;;;;;17.89;100.00;102049.66;12665932;23;20024;-89
2022/10/27 10:54:31;;;;;;;3.65;1.50;;;;;;;17.18;100.00;101908.28;12655150;23;20406;-89
2022/10/27 10:59:33;;;;;;;3.50;1.80;;;;;;;17.15;100.00;101904.94;12684621;23;20072;-89
2022/10/27 11:04:46;;;;;;;3.88;1.50;;;;;;;16.71;100.00;101824.66;12606195;23;20025;-89
2022/10/27 11:10:03;;;;;;;3.35;1.35;;;;;;;18.20;100.00;102044.97;12608057;23;20353;-90
2022/10/27 11:15:13;;;;;;;4.55;1.52;;;;;;;17.06;100.00;101862.06;12600317;23;20006;-88
2022/10/27 11:20:21;;;;;;;12.07;2.13;;;;;;;18.08;100.00;102002.59;12564614;23;20524;-88
2022/10/27 11:25:32;;;;;;;5.35;1.80;;;;;;;18.40;100.00;102016.28;12581102;23;20042;-88
2022/10/27 11:30:34;;;;;;;4.80;2.35;;;;;;;18.73;100.00;102011.22;12602012;23;20024;-88
2022/10/27 11:35:55;;;;;;;2.55;1.23;;;;;;;19.25;100.00;102025.91;12563280;23;20027;-88
2022/10/27 11:41:34;;;;;;;5.45;1.17;;;;;;;19.71;100.00;102017.31;12628015;23;20403;-88
2022/10/27 11:46:42;;;;;;;7.78;1.55;;;;;;;19.34;100.00;101963.56;12629309;23;20006;-87
2022/10/27 11:51:49;;;;;;;6.68;1.52;;;;;;;18.93;100.00;101935.88;12607997;23;20022;-88
2022/10/27 11:57:00;;;;;;;4.22;1.48;;;;;;;19.12;100.00;102000.25;12607588;23;20009;-87
2022/10/27 12:02:40;;;;;;;3.40;1.40;;;;;;;18.79;100.00;101992.53;12614335;23;20024;-84
2022/10/27 12:08:20;;;;;;;2.58;1.67;;;;;;;17.54;100.00;101825.69;12582751;23;20194;-91
2022/10/27 12:13:32;;;;;;;3.05;1.20;;;;;;;18.63;100.00;101969.41;12510477;23;21860;-91
2022/10/27 12:18:42;;;;;;;6.82;2.50;;;;;;;18.40;100.00;101942.94;12442390;23;20021;-91
2022/10/27 12:23:46;;;;;;;7.18;1.90;;;;;;;16.75;100.00;101700.66;12486331;23;20052;-92
2022/10/27 12:28:46;;;;;;;2.42;1.05;;;;;;;17.14;100.00;101766.94;12645115;23;20021;-90
2022/10/27 12:33:58;;;;;;;6.20;1.33;;;;;;;17.29;100.00;101790.31;12637831;23;20101;-89
2022/10/27 12:39:11;;;;;;;3.60;1.13;;;;;;;17.03;100.00;101717.97;12637401;23;20005;-88
2022/10/27 12:44:24;;;;;;;2.95;1.10;;;;;;;17.14;100.00;101743.84;12597884;23;20014;-91
2022/10/27 12:49:37;;;;;;;3.28;1.10;;;;;;;18.95;100.00;101933.63;12480823;23;20030;-89
2022/10/27 12:54:48;;;;;;;6.22;1.50;;;;;;;18.04;100.00;101723.69;12597141;23;20014;-90
2022/10/27 13:00:07;;;;;;;4.07;1.23;;;;;;;19.20;100.00;101917.84;12613945;23;20054;-90
2022/10/27 13:05:26;;;;;;;3.13;1.08;;;;;;;19.05;100.00;101915.97;12638909;23;20022;-89
2022/10/27 13:10:40;;;;;;;2.90;0.88;;;;;;;18.97;100.00;101913.78;12521538;23;20185;-89
2022/10/27 13:15:52;;;;;;;4.28;1.00;;;;;;;18.69;100.00;101840.78;12555550;23;20022;-89
2022/10/27 13:21:20;;;;;;;2.88;1.50;;;;;;;19.17;100.00;101834.72;12519582;23;20643;-88
2022/10/27 13:26:29;;;;;;;4.45;1.20;;;;;;;19.55;100.00;101805.09;12513536;23;20137;-90
2022/10/27 13:31:39;;;;;;;6.43;1.20;;;;;;;19.88;100.00;101752.28;12534558;23;20025;-92
2022/10/27 13:54:32;;;;;;;5.65;1.88;;;;;;;21.69;100.00;101847.50;12590509;23;20058;-88
2022/10/27 14:19:11;;;;;;;3.42;1.33;;;;;;;19.23;100.00;101867.06;12373766;23;20053;-89
2022/10/27 14:24:33;;;;;;;14.90;1.20;;;;;;;18.70;100.00;101863.94;12338050;23;20016;-91
2022/10/27 14:29:41;;;;;;;12.52;1.95;;;;;;;17.99;100.00;101840.72;12250661;23;20352;-90
2022/10/27 14:34:42;;;;;;;4.10;1.33;;;;;;;17.45;100.00;101753.03;12342164;23;20015;-89
2022/10/27 14:39:42;;;;;;;3.80;1.00;;;;;;;17.75;100.00;101862.72;12552964;23;20394;-89
2022/10/27 14:45:02;;;;;;;3.00;1.05;;;;;;;17.60;100.00;101854.38;12540866;23;20073;-90
2022/10/27 14:50:35;;;;;;;6.70;1.80;;;;;;;17.08;100.00;101795.88;12563871;23;20022;-91
2022/10/27 14:55:37;;;;;;;10.25;1.60;;;;;;;15.97;100.00;101683.19;12571965;23;20393;-88
2022/10/27 15:00:37;;;;;;;3.25;1.30;;;;;;;16.81;100.00;101860.03;12555259;23;20338;-89
2022/10/27 15:05:44;;;;;;;3.40;1.45;;;;;;;15.56;100.00;101682.94;12534415;23;20077;-89
2022/10/27 15:10:48;;;;;;;1.88;1.27;;;;;;;15.24;100.00;101609.78;12550573;23;20038;-90
2022/10/27 15:15:48;;;;;;;2.85;1.50;;;;;;;15.81;100.00;101749.75;12546208;23;20010;-88
2022/10/27 15:20:49;;;;;;;5.88;1.67;;;;;;;15.66;100.00;101683.84;12550965;23;20037;-89
2022/10/27 15:25:53;;;;;;;5.03;1.80;;;;;;;15.47;100.00;101652.91;12527018;23;20006;-89
2022/10/27 15:31:00;;;;;;;5.32;1.50;;;;;;;14.75;100.00;101498.28;12533114;23;20026;-90
2022/10/27 15:36:16;;;;;;;6.10;1.98;;;;;;;16.31;100.00;101745.56;12516301;23;20019;-89
2022/10/27 15:41:23;;;;;;;1.53;0.90;;;;;;;16.50;100.00;101768.16;12542772;23;20011;-90
2022/10/27 15:46:35;;;;;;;4.05;1.38;;;;;;;15.49;100.00;101620.19;12483782;23;20238;-90
2022/10/27 15:51:43;;;;;;;3.33;1.27;;;;;;;15.69;100.00;101657.50;12470222;23;21408;-89
2022/10/27 15:56:45;;;;;;;5.00;1.10;;;;;;;15.79;100.00;101632.56;12554745;23;20028;-88
2022/10/27 16:01:47;;;;;;;3.25;1.13;;;;;;;15.39;100.00;101600.72;12542616;23;20007;-89
2022/10/27 16:06:47;;;;;;;2.38;1.35;;;;;;;15.70;100.00;101653.59;12509710;23;20077;-88
2022/10/27 16:11:48;;;;;;;8.32;2.20;;;;;;;15.21;100.00;101579.78;12479828;23;20074;-89
2022/10/27 16:16:52;;;;;;;4.32;1.63;;;;;;;15.55;100.00;101654.38;12503894;23;20002;-89
2022/10/27 16:21:52;;;;;;;4.65;1.35;;;;;;;15.97;100.00;101720.13;12490096;23;20389;-87
2022/10/27 16:26:54;;;;;;;8.20;1.60;;;;;;;15.51;100.00;101711.50;12565550;23;20010;-87
2022/10/27 16:31:54;;;;;;;11.02;2.30;;;;;;;14.50;100.00;101552.38;12509064;23;20054;-86
2022/10/27 16:36:55;;;;;;;5.00;1.45;;;;;;;14.42;100.00;101555.63;12518517;23;20019;-88
2022/10/27 16:41:55;;;;;;;3.42;1.50;;;;;;;14.70;100.00;101608.00;12519751;23;20325;-89
2022/10/27 16:46:56;;;;;;;5.35;1.48;;;;;;;15.79;100.00;101776.94;12519065;23;20022;-88
2022/10/27 16:52:29;;;;;;;5.07;1.83;;;;;;;13.57;100.00;101444.63;12483740;23;20062;-95
2022/10/27 16:57:30;;;;;;;13.43;1.80;;;;;;;13.57;100.00;101458.47;12427418;23;20023;-89
2022/10/27 17:02:30;;;;;;;9.23;2.15;;;;;;;14.26;100.00;101608.13;12479344;23;20011;-90
2022/10/27 17:07:31;;;;;;;5.10;1.77;;;;;;;14.21;100.00;101583.13;12518036;23;20342;-89
2022/10/27 17:12:31;;;;;;;10.07;1.70;;;;;;;14.41;100.00;101632.38;12508158;23;20018;-89
2022/10/27 17:17:32;;;;;;;11.48;2.22;;;;;;;14.05;100.00;101561.91;12509883;23;20069;-89
2022/10/27 17:22:33;;;;;;;12.63;2.22;;;;;;;14.92;100.00;101729.03;12483995;23;20058;-88
2022/10/27 17:27:33;;;;;;;7.80;1.90;;;;;;;14.00;100.00;101582.09;12523168;23;20002;-88
2022/10/27 17:32:34;;;;;;;5.15;2.22;;;;;;;13.74;100.00;101575.41;12523159;23;20062;-88
2022/10/27 17:37:34;;;;;;;7.40;2.20;;;;;;;14.77;100.00;101789.88;12524455;23;20334;-93
2022/10/27 17:42:35;;;;;;;8.70;2.13;;;;;;;13.11;100.00;101531.44;12559945;23;20389;-91
2022/10/27 17:47:35;;;;;;;11.13;2.78;;;;;;;13.24;100.00;101554.28;12536478;23;20019;-91
2022/10/27 17:52:36;;;;;;;7.55;2.33;;;;;;;13.23;100.00;101583.00;12539429;23;20019;-90
2022/10/27 17:57:37;;;;;;;6.40;3.03;;;;;;;12.84;100.00;101508.38;12490842;23;20071;-92
2022/10/27 18:02:37;;;;;;;4.60;2.72;;;;;;;13.82;100.00;101680.13;12500538;23;20042;-92
2022/10/27 18:07:38;;;;;;;7.05;2.30;;;;;;;12.68;100.00;101546.81;12452705;23;20026;-94
2022/10/27 18:12:38;;;;;;;8.25;3.20;;;;;;;12.66;100.00;101535.19;12459537;23;20023;-93
2022/10/27 18:17:39;;;;;;;5.35;2.65;;;;;;;13.31;100.00;101608.34;12484539;23;20011;-93
2022/10/27 18:22:40;;;;;;;5.50;2.92;;;;;;;14.50;100.00;101835.00;12479449;23;20014;-93
2022/10/27 18:27:43;;;;;;;7.13;3.60;;;;;;;12.64;100.00;101515.25;12468854;23;20007;-93
2022/10/27 18:32:44;;;;;;;8.43;3.30;;;;;;;13.43;100.00;101618.44;12385982;23;20062;-94
2022/10/27 18:37:48;;;;;;;13.10;4.97;;;;;;;12.51;100.00;101521.16;12377234;23;20129;-93
2022/10/27 18:42:54;;;;;;;8.65;3.45;;;;;;;14.08;100.00;101783.75;12383253;23;20010;-93
2022/10/27 18:47:57;;;;;;;10.73;4.20;;;;;;;13.85;100.00;101746.06;12316345;23;20383;-93
2022/10/27 18:52:58;;;;;;;15.18;4.10;;;;;;;14.24;100.00;101801.41;12444900;23;20011;-92
2022/10/27 18:57:58;;;;;;;11.13;3.60;;;;;;;12.81;100.00;101591.78;12507726;23;20037;-91
2022/10/27 19:03:12;;;;;;;6.70;3.50;;;;;;;12.90;100.00;101617.91;12390979;23;20512;-94
2022/10/27 19:08:33;;;;;;;9.32;4.00;;;;;;;12.20;100.00;101515.09;12420574;23;20026;-92
2022/10/27 19:13:36;;;;;;;7.32;3.67;;;;;;;12.21;100.00;101510.41;12447215;23;20046;-91
2022/10/27 19:18:39;;;;;;;10.57;4.15;;;;;;;12.40;100.00;101538.63;12397467;23;20493;-91
2022/10/27 19:23:44;;;;;;;9.82;4.18;;;;;;;13.59;100.00;101742.06;12453887;23;20050;-93
2022/10/27 19:28:45;;;;;;;9.45;4.47;;;;;;;12.91;100.00;101603.81;12484937;23;20011;-91
2022/10/27 19:33:47;;;;;;;5.85;3.35;;;;;;;13.24;100.00;101642.75;12439848;23;20012;-91
2022/10/27 19:38:48;;;;;;;9.68;4.13;;;;;;;14.39;100.00;101795.25;12422660;23;20039;-93
2022/10/27 19:43:54;;;;;;;8.32;3.45;;;;;;;13.12;100.00;101604.13;12372186;23;20011;-92
2022/10/27 19:48:56;;;;;;;6.73;3.60;;;;;;;13.42;100.00;101642.50;12463238;23;20058;-92
2022/10/27 19:53:57;;;;;;;8.82;3.90;;;;;;;13.07;100.00;101624.25;12423763;23;20521;-92
2022/10/27 19:59:01;;;;;;;10.68;4.75;;;;;;;13.68;100.00;101735.03;12465389;23;20011;-92
2022/10/27 20:04:09;;;;;;;13.77;5.68;;;;;;;13.65;100.00;101759.59;12461851;23;20061;-92
2022/10/27 20:09:10;;;;;;;12.02;4.63;;;;;;;13.06;100.00;101603.25;12494297;23;20022;-94
2022/10/27 20:14:11;;;;;;;11.20;4.82;;;;;;;12.67;100.00;101561.75;12488195;23;20536;-92
2022/10/27 20:19:14;;;;;;;11.40;5.10;;;;;;;12.84;100.00;101570.00;12482069;23;20018;-93
2022/10/27 20:24:16;;;;;;;12.93;5.05;;;;;;;12.81;100.00;101608.34;12536886;23;20432;-93
2022/10/27 20:29:17;;;;;;;9.38;5.20;;;;;;;12.30;100.00;101537.38;12518144;23;20082;-90
2022/10/27 20:34:20;;;;;;;11.50;5.38;;;;;;;12.71;100.00;101609.03;12499770;23;20006;-93
2022/10/27 20:39:21;;;;;;;12.23;5.55;;;;;;;12.08;100.00;101545.53;12510226;23;20341;-94
2022/10/27 20:44:24;;;;;;;12.75;6.20;;;;;;;12.60;100.00;101630.09;12521234;23;20006;-94
2022/10/27 20:49:25;;;;;;;13.40;6.15;;;;;;;12.04;100.00;101535.25;12439840;23;20018;-94
2022/10/27 20:54:26;;;;;;;16.60;6.57;;;;;;;13.16;100.00;101743.56;12516557;23;20445;-94
2022/10/27 20:59:26;;;;;;;14.38;6.60;;;;;;;13.37;100.00;101732.84;12527057;23;20002;-94
2022/10/27 21:04:29;;;;;;;17.08;6.28;;;;;;;12.35;100.00;101615.84;12535500;23;20086;-94
2022/10/27 21:09:30;;;;;;;11.23;6.25;;;;;;;12.92;100.00;101696.72;12536352;23;20025;-94
2022/10/27 21:14:39;;;;;;;9.98;6.35;;;;;;;12.48;100.00;101663.31;12330237;23;20471;-94
2022/10/27 21:20:02;;;;;;;;;;;;;;;;;;;;;
2022/10/27 21:25:15;;;;;;;15.55;7.43;;;;;;;12.63;100.00;101717.16;12429803;23;20070;-94
2022/10/27 21:30:16;;;;;;;16.63;7.85;;;;;;;13.50;100.00;101838.50;12461820;23;20032;-93
2022/10/27 21:35:17;;;;;;;13.30;6.53;;;;;;;12.87;100.00;101756.59;12480895;23;20017;-92
2022/10/27 21:40:18;;;;;;;20.05;8.20;;;;;;;12.84;100.00;101712.88;12461871;23;20010;-93
2022/10/27 21:45:21;;;;;;;13.82;7.22;;;;;;;12.05;100.00;101589.34;12511920;23;20006;-94
2022/10/27 21:50:21;;;;;;;13.85;8.30;;;;;;;12.36;100.00;101656.19;12516354;23;20098;-88
2022/10/27 21:55:22;;;;;;;14.18;8.43;;;;;;;12.56;100.00;101688.88;12573073;23;20459;-88
2022/10/27 22:00:25;;;;;;;14.10;8.70;;;;;;;12.04;100.00;101662.19;12525803;23;20010;-88
2022/10/27 22:05:25;;;;;;;16.70;7.68;;;;;;;13.18;100.00;101851.97;12551639;23;20386;-88
2022/10/27 22:10:26;;;;;;;21.88;8.45;;;;;;;11.65;100.00;101570.88;12524494;23;20050;-88
2022/10/27 22:15:26;;;;;;;18.38;8.55;;;;;;;12.98;100.00;101821.19;12510741;23;20014;-88
2022/10/27 22:20:27;;;;;;;15.95;9.07;;;;;;;12.62;100.00;101759.72;12476590;23;20003;-88
2022/10/27 22:25:28;;;;;;;23.55;9.32;;;;;;;12.05;100.00;101681.28;12439887;23;20034;-88
2022/10/27 22:30:31;;;;;;;16.38;9.77;;;;;;;13.05;100.00;101825.47;12432082;23;20433;-88
2022/10/27 22:35:32;;;;;;;15.50;9.15;;;;;;;12.04;100.00;101709.13;12476100;23;20037;-88
2022/10/27 22:40:37;;;;;;;22.92;10.65;;;;;;;12.14;100.00;101703.81;12456144;23;20007;-93
2022/10/27 22:45:41;;;;;;;20.70;11.27;;;;;;;11.37;100.00;101610.25;12515480;23;21122;-93
2022/10/27 22:50:44;;;;;;;25.67;11.35;;;;;;;11.56;100.00;101655.09;12481505;23;20022;-94
2022/10/27 22:55:45;;;;;;;17.42;9.85;;;;;;;11.77;100.00;101687.53;12491286;23;20150;-94
2022/10/27 23:00:46;;;;;;;16.05;10.57;;;;;;;11.29;100.00;101590.25;12465182;23;20085;-93
2022/10/27 23:05:49;;;;;;;22.52;10.73;;;;;;;11.45;100.00;101638.31;12454505;23;20459;-93
2022/10/27 23:10:56;;;;;;;18.45;11.75;;;;;;;11.29;100.00;101592.19;12474628;23;20038;-93
2022/10/27 23:15:59;;;;;;;23.08;11.52;;;;;;;12.30;100.00;101738.09;12510906;23;20002;-88
2022/10/27 23:21:00;;;;;;;20.90;12.13;;;;;;;12.92;100.00;101881.91;12527549;23;20500;-88
2022/10/27 23:26:01;;;;;;;23.85;12.43;;;;;;;12.12;100.00;101656.28;12528583;23;20030;-88
2022/10/27 23:31:02;;;;;;;24.40;12.90;;;;;;;12.16;100.00;101674.03;12539872;23;20518;-88
2022/10/27 23:36:03;;;;;;;23.30;13.65;;;;;;;12.32;100.00;101720.19;12549152;23;20014;-88